createdAt,value
2018-12-15T00:01:04.889Z,2.96
2018-12-15T00:03:34.145Z,2.92
2018-12-15T00:06:23.012Z,2.89
2018-12-15T00:08:52.279Z,2.84
2018-12-15T00:11:21.543Z,2.80
2018-12-15T00:13:50.796Z,2.82
2018-12-15T00:16:20.060Z,2.82
2018-12-15T00:19:08.923Z,2.81
2018-12-15T00:21:38.194Z,2.78
2018-12-15T00:24:07.440Z,2.78
2018-12-15T00:26:36.790Z,2.75
2018-12-15T00:29:06.045Z,2.72
2018-12-15T00:31:35.303Z,2.65
2018-12-15T00:34:04.546Z,2.63
2018-12-15T00:36:33.811Z,2.63
2018-12-15T00:41:52.337Z,2.62
2018-12-15T00:44:21.601Z,2.64
2018-12-15T00:47:13.949Z,2.67
2018-12-15T00:49:40.912Z,2.68
2018-12-15T00:52:10.168Z,2.64
2018-12-15T00:54:39.421Z,2.61
2018-12-15T00:57:08.691Z,2.56
2018-12-15T00:59:37.955Z,2.59
2018-12-15T01:02:07.218Z,2.61
2018-12-15T01:04:36.470Z,2.67
2018-12-15T01:07:05.732Z,2.69
2018-12-15T01:09:34.981Z,2.68
2018-12-15T01:12:04.246Z,2.63
2018-12-15T01:14:33.512Z,2.64
2018-12-15T01:17:02.805Z,2.61
2018-12-15T01:19:32.060Z,2.66
2018-12-15T01:22:01.325Z,2.65
2018-12-15T01:24:30.564Z,2.65
2018-12-15T01:26:59.829Z,2.63
2018-12-15T01:29:29.083Z,2.66
2018-12-15T01:31:58.358Z,2.63
2018-12-15T01:34:27.604Z,2.61
2018-12-15T01:36:56.872Z,2.63
2018-12-15T01:39:26.129Z,2.64
2018-12-15T01:41:55.381Z,2.66
2018-12-15T01:44:24.638Z,2.73
2018-12-15T01:46:53.911Z,2.78
2018-12-15T01:49:23.176Z,2.80
2018-12-15T01:51:52.489Z,2.77
2018-12-15T01:54:21.743Z,2.75
2018-12-15T01:56:51.017Z,2.70
2018-12-15T01:59:20.274Z,2.72
2018-12-15T02:01:49.539Z,2.75
2018-12-15T02:04:18.796Z,2.78
2018-12-15T02:06:48.063Z,2.80
2018-12-15T02:09:17.309Z,2.79
2018-12-15T02:11:46.579Z,2.82
2018-12-15T02:14:15.828Z,2.86
2018-12-15T02:16:45.089Z,2.89
2018-12-15T02:19:14.338Z,2.88
2018-12-15T02:21:43.607Z,2.90
2018-12-15T02:24:12.864Z,2.92
2018-12-15T02:27:01.722Z,2.91
2018-12-15T02:29:30.983Z,2.91
2018-12-15T02:32:00.253Z,2.88
2018-12-15T02:34:29.498Z,2.86
2018-12-15T02:36:58.762Z,2.88
2018-12-15T02:39:28.020Z,2.87
2018-12-15T02:41:57.285Z,2.91
2018-12-15T02:44:26.550Z,2.96
2018-12-15T02:46:55.808Z,2.96
2018-12-15T02:49:25.052Z,3.00
2018-12-15T02:51:54.315Z,3.01
2018-12-15T02:54:23.571Z,3.00
2018-12-15T02:56:52.844Z,3.01
2018-12-15T02:59:22.108Z,2.99
2018-12-15T03:01:51.364Z,3.01
2018-12-15T03:04:20.622Z,2.99
2018-12-15T03:06:49.872Z,2.98
2018-12-15T03:09:19.134Z,3.00
2018-12-15T03:11:48.392Z,3.01
2018-12-15T03:14:17.697Z,3.00
2018-12-15T03:17:08.823Z,2.98
2018-12-15T03:19:38.090Z,2.98
2018-12-15T03:22:07.356Z,2.91
2018-12-15T03:24:36.615Z,2.81
2018-12-15T03:27:05.867Z,2.79
2018-12-15T03:29:35.136Z,2.78
2018-12-15T03:32:04.391Z,2.76
2018-12-15T03:34:33.651Z,2.73
2018-12-15T03:37:02.978Z,2.68
2018-12-15T03:39:32.243Z,2.62
2018-12-15T03:42:01.496Z,2.55
2018-12-15T03:44:30.775Z,2.56
2018-12-15T03:47:00.023Z,2.61
2018-12-15T03:49:29.307Z,2.65
2018-12-15T03:51:58.551Z,2.68
2018-12-15T03:54:27.832Z,2.70
2018-12-15T03:56:57.129Z,2.71
2018-12-15T04:02:02.042Z,2.70
2018-12-15T04:07:07.006Z,2.60
2018-12-15T04:09:36.273Z,2.59
2018-12-15T04:12:05.523Z,2.55
2018-12-15T04:14:34.801Z,2.50
2018-12-15T04:17:04.121Z,2.45
2018-12-15T04:19:33.380Z,2.42
2018-12-15T04:22:21.718Z,2.43
2018-12-15T04:24:50.987Z,2.44
2018-12-15T04:27:20.255Z,2.49
2018-12-15T04:29:49.518Z,2.49
2018-12-15T04:32:18.802Z,2.50
2018-12-15T04:34:48.046Z,2.49
2018-12-15T04:37:17.304Z,2.50
2018-12-15T04:39:46.578Z,2.51
2018-12-15T04:42:15.827Z,2.53
2018-12-15T04:44:45.102Z,2.51
2018-12-15T04:50:03.651Z,2.49
2018-12-15T04:52:32.892Z,2.53
2018-12-15T04:55:02.211Z,2.53
2018-12-15T04:57:31.430Z,2.58
2018-12-15T05:00:00.704Z,2.63
2018-12-15T05:02:29.969Z,2.64
2018-12-15T05:05:18.293Z,2.66
2018-12-15T05:07:47.559Z,2.66
2018-12-15T05:10:16.830Z,2.63
2018-12-15T05:12:46.087Z,2.56
2018-12-15T05:15:15.373Z,2.53
2018-12-15T05:17:44.632Z,2.51
2018-12-15T05:20:13.913Z,2.48
2018-12-15T05:23:02.770Z,2.43
2018-12-15T05:25:32.044Z,2.43
2018-12-15T05:28:01.313Z,2.41
2018-12-15T05:30:30.583Z,2.41
2018-12-15T05:32:59.852Z,2.39
2018-12-15T05:35:29.124Z,2.43
2018-12-15T05:37:58.379Z,2.39
2018-12-15T05:40:27.659Z,2.40
2018-12-15T05:42:56.916Z,2.41
2018-12-15T05:45:26.187Z,2.38
2018-12-15T05:47:55.452Z,2.39
2018-12-15T05:50:24.708Z,2.46
2018-12-15T05:52:53.984Z,2.50
2018-12-15T05:55:23.248Z,2.48
2018-12-15T05:57:52.518Z,2.46
2018-12-15T06:00:21.781Z,2.41
2018-12-15T06:02:51.058Z,2.39
2018-12-15T06:08:09.603Z,2.34
2018-12-15T06:10:38.864Z,2.30
2018-12-15T06:13:08.137Z,2.26
2018-12-15T06:15:37.389Z,2.24
2018-12-15T06:18:06.654Z,2.24
2018-12-15T06:20:35.916Z,2.26
2018-12-15T06:23:05.186Z,2.26
2018-12-15T06:25:54.316Z,2.27
2018-12-15T06:28:23.592Z,2.25
2018-12-15T06:33:41.225Z,2.23
2018-12-15T06:36:10.499Z,2.21
2018-12-15T06:38:39.776Z,2.20
2018-12-15T06:41:09.033Z,2.18
2018-12-15T06:46:14.673Z,2.19
2018-12-15T06:48:43.943Z,2.23
2018-12-15T06:51:13.208Z,2.26
2018-12-15T06:53:42.482Z,2.24
2018-12-15T06:56:11.752Z,2.24
2018-12-15T06:58:41.025Z,2.21
2018-12-15T07:01:10.276Z,2.20
2018-12-15T07:03:39.540Z,2.24
2018-12-15T07:06:08.795Z,2.26
2018-12-15T07:11:12.494Z,2.22
2018-12-15T07:13:41.763Z,2.20
2018-12-15T07:16:30.901Z,2.19
2018-12-15T07:19:00.189Z,2.18
2018-12-15T07:21:29.441Z,2.21
2018-12-15T07:23:58.716Z,2.28
2018-12-15T07:26:27.981Z,2.31
2018-12-15T07:28:57.255Z,2.31
2018-12-15T07:31:26.508Z,2.31
2018-12-15T07:33:55.774Z,2.30
2018-12-15T07:36:25.036Z,2.34
2018-12-15T07:38:54.342Z,2.32
2018-12-15T07:41:23.601Z,2.30
2018-12-15T07:43:52.871Z,2.27
2018-12-15T07:46:22.134Z,2.24
2018-12-15T07:48:51.625Z,2.25
2018-12-15T07:51:21.570Z,2.24
2018-12-15T07:53:50.853Z,2.27
2018-12-15T07:59:09.393Z,2.24
2018-12-15T08:01:38.661Z,2.24
2018-12-15T08:04:07.937Z,2.22
2018-12-15T08:06:37.204Z,2.24
2018-12-15T08:09:07.696Z,2.25
2018-12-15T08:11:55.685Z,2.28
2018-12-15T08:14:25.039Z,2.29
2018-12-15T08:16:54.299Z,2.34
2018-12-15T08:19:23.569Z,2.35
2018-12-15T08:21:52.854Z,2.36
2018-12-15T08:24:22.125Z,2.40
2018-12-15T08:26:51.397Z,2.46
2018-12-15T08:29:39.721Z,2.44
2018-12-15T08:32:08.992Z,2.40
2018-12-15T08:34:38.265Z,2.38
2018-12-15T08:37:07.534Z,2.37
2018-12-15T08:39:36.813Z,2.33
2018-12-15T08:42:06.070Z,2.32
2018-12-15T08:44:35.348Z,2.30
2018-12-15T08:47:04.699Z,2.27
2018-12-15T08:49:33.975Z,2.25
2018-12-15T08:52:03.252Z,2.28
2018-12-15T08:54:32.529Z,2.29
2018-12-15T08:57:01.785Z,2.27
2018-12-15T08:59:31.069Z,2.27
2018-12-15T09:02:00.338Z,2.28
2018-12-15T09:04:29.610Z,2.28
2018-12-15T09:06:58.864Z,2.30
2018-12-15T09:09:28.146Z,2.31
2018-12-15T09:11:57.411Z,2.30
2018-12-15T09:14:26.693Z,2.29
2018-12-15T09:16:55.938Z,2.31
2018-12-15T09:19:25.251Z,2.33
2018-12-15T09:21:54.501Z,2.36
2018-12-15T09:24:23.782Z,2.41
2018-12-15T09:26:53.069Z,2.41
2018-12-15T09:29:22.328Z,2.40
2018-12-15T09:31:51.608Z,2.41
2018-12-15T09:34:20.873Z,2.42
2018-12-15T09:36:50.169Z,2.48
2018-12-15T09:39:19.430Z,2.50
2018-12-15T09:41:48.694Z,2.45
2018-12-15T09:44:17.956Z,2.44
2018-12-15T09:46:47.247Z,2.47
2018-12-15T09:49:17.937Z,2.47
2018-12-15T09:51:46.705Z,2.51
2018-12-15T09:54:15.966Z,2.60
2018-12-15T09:56:45.243Z,2.65
2018-12-15T09:59:14.493Z,2.71
2018-12-15T10:01:43.764Z,2.72
2018-12-15T10:04:13.043Z,2.80
2018-12-15T10:06:43.780Z,2.82
2018-12-15T10:09:14.401Z,2.81
2018-12-15T10:11:45.352Z,2.82
2018-12-15T10:14:15.531Z,2.88
2018-12-15T10:16:45.765Z,2.96
2018-12-15T10:19:15.888Z,3.02
2018-12-15T10:21:46.062Z,3.05
2018-12-15T10:24:16.241Z,3.06
2018-12-15T10:26:46.380Z,3.06
2018-12-15T10:29:35.064Z,3.05
2018-12-15T10:32:42.448Z,3.04
2018-12-15T10:35:12.576Z,2.95
2018-12-15T10:37:42.855Z,2.90
2018-12-15T10:40:12.931Z,2.89
2018-12-15T10:42:43.023Z,2.91
2018-12-15T10:45:13.051Z,2.93
2018-12-15T10:47:43.221Z,2.89
2018-12-15T10:50:32.190Z,2.85
2018-12-15T10:55:44.690Z,2.78
2018-12-15T10:58:34.509Z,2.77
2018-12-15T11:01:24.325Z,2.78
2018-12-15T11:04:00.666Z,2.81
2018-12-15T11:06:45.247Z,2.78
2018-12-15T11:09:15.380Z,2.77
2018-12-15T11:11:45.833Z,2.76
2018-12-15T11:14:16.058Z,2.80
2018-12-15T11:16:46.036Z,2.89
2018-12-15T11:19:15.984Z,2.92
2018-12-15T11:21:46.375Z,2.88
2018-12-15T11:24:16.493Z,2.88
2018-12-15T11:26:46.599Z,2.91
2018-12-15T11:29:16.810Z,2.91
2018-12-15T11:31:47.224Z,2.92
2018-12-15T11:34:17.670Z,2.95
2018-12-15T11:36:47.729Z,2.93
2018-12-15T11:39:18.072Z,2.94
2018-12-15T11:41:48.247Z,2.98
2018-12-15T11:44:18.488Z,3.06
2018-12-15T11:46:48.607Z,3.13
2018-12-15T11:49:18.702Z,3.14
2018-12-15T11:51:48.513Z,3.17
2018-12-15T11:54:24.951Z,3.22
2018-12-15T11:56:54.204Z,3.26
2018-12-15T11:59:23.473Z,3.25
2018-12-15T12:01:53.200Z,3.20
2018-12-15T12:04:22.913Z,3.21
2018-12-15T12:06:52.177Z,3.22
2018-12-15T12:09:21.444Z,3.23
2018-12-15T12:11:50.728Z,3.22
2018-12-15T12:14:19.998Z,3.25
2018-12-15T12:16:49.255Z,3.21
2018-12-15T12:19:18.528Z,3.18
2018-12-15T12:21:47.779Z,3.15
2018-12-15T12:24:17.042Z,3.13
2018-12-15T12:26:46.297Z,3.14
2018-12-15T12:29:15.569Z,3.14
2018-12-15T12:31:44.821Z,3.09
2018-12-15T12:34:14.112Z,3.02
2018-12-15T12:36:43.363Z,3.01
2018-12-15T12:39:32.239Z,2.97
2018-12-15T12:42:01.506Z,2.91
2018-12-15T12:44:30.770Z,2.85
2018-12-15T12:47:00.029Z,2.79
2018-12-15T12:49:29.301Z,2.81
2018-12-15T12:51:58.543Z,2.81
2018-12-15T12:54:27.805Z,2.79
2018-12-15T12:56:57.127Z,2.74
2018-12-15T12:59:26.393Z,2.72
2018-12-15T13:01:55.650Z,2.69
2018-12-15T13:04:24.920Z,2.66
2018-12-15T13:06:54.190Z,2.66
2018-12-15T13:09:23.473Z,2.62
2018-12-15T13:11:52.727Z,2.58
2018-12-15T13:14:21.986Z,2.56
2018-12-15T13:16:51.250Z,2.54
2018-12-15T13:19:20.505Z,2.49
2018-12-15T13:21:49.779Z,2.48
2018-12-15T13:24:19.045Z,2.51
2018-12-15T13:26:48.322Z,2.51
2018-12-15T13:29:17.577Z,2.51
2018-12-15T13:31:46.848Z,2.51
2018-12-15T13:34:16.093Z,2.48
2018-12-15T13:36:45.375Z,2.49
2018-12-15T13:39:14.640Z,2.48
2018-12-15T13:41:43.912Z,2.47
2018-12-15T13:44:13.177Z,2.44
2018-12-15T13:46:42.447Z,2.46
2018-12-15T13:49:11.701Z,2.48
2018-12-15T13:51:40.986Z,2.54
2018-12-15T13:54:10.253Z,2.56
2018-12-15T13:56:39.521Z,2.51
2018-12-15T13:59:08.788Z,2.44
2018-12-15T14:01:38.056Z,2.39
2018-12-15T14:04:07.306Z,2.37
2018-12-15T14:06:36.568Z,2.35
2018-12-15T14:09:08.325Z,2.32
2018-12-15T14:11:37.607Z,2.32
2018-12-15T14:14:06.872Z,2.30
2018-12-15T14:16:36.139Z,2.27
2018-12-15T14:19:05.392Z,2.24
2018-12-15T14:21:34.648Z,2.22
2018-12-15T14:24:03.932Z,2.18
2018-12-15T14:26:33.211Z,2.16
2018-12-15T14:29:02.482Z,2.13
2018-12-15T14:31:31.751Z,2.11
2018-12-15T14:34:01.024Z,2.12
2018-12-15T14:36:30.293Z,2.14
2018-12-15T14:38:59.557Z,2.15
2018-12-15T14:41:28.897Z,2.13
2018-12-15T14:43:58.136Z,2.11
2018-12-15T14:46:27.408Z,2.10
2018-12-15T14:48:56.679Z,2.12
2018-12-15T14:51:25.972Z,2.12
2018-12-15T14:53:55.218Z,2.16
2018-12-15T14:56:24.501Z,2.15
2018-12-15T14:58:53.769Z,2.15
2018-12-15T15:01:23.061Z,2.16
2018-12-15T15:03:52.342Z,2.14
2018-12-15T15:06:21.609Z,2.12
2018-12-15T15:08:50.893Z,2.08
2018-12-15T15:11:20.139Z,2.02
2018-12-15T15:13:49.407Z,2.01
2018-12-15T15:16:18.660Z,2.02
2018-12-15T15:18:47.932Z,2.05
2018-12-15T15:21:17.176Z,2.08
2018-12-15T15:23:46.459Z,2.08
2018-12-15T15:26:15.714Z,2.07
2018-12-15T15:28:45.032Z,2.07
2018-12-15T15:31:14.237Z,2.07
2018-12-15T15:33:43.558Z,2.08
2018-12-15T15:36:12.951Z,2.12
2018-12-15T15:38:42.654Z,2.15
2018-12-15T15:41:12.200Z,2.17
2018-12-15T15:43:41.671Z,2.16
2018-12-15T15:46:11.162Z,2.15
2018-12-15T15:48:40.752Z,2.14
2018-12-15T15:51:10.192Z,2.15
2018-12-15T15:53:39.701Z,2.15
2018-12-15T15:56:09.171Z,2.16
2018-12-15T15:58:38.738Z,2.15
2018-12-15T16:01:08.184Z,2.18
2018-12-15T16:03:37.612Z,2.15
2018-12-15T16:06:07.026Z,2.18
2018-12-15T16:08:36.589Z,2.22
2018-12-15T16:11:05.934Z,2.25
2018-12-15T16:13:35.193Z,2.27
2018-12-15T16:16:24.570Z,2.25
2018-12-15T16:18:54.239Z,2.22
2018-12-15T16:21:23.586Z,2.18
2018-12-15T16:23:52.867Z,2.16
2018-12-15T16:26:22.118Z,2.18
2018-12-15T16:28:51.379Z,2.16
2018-12-15T16:31:20.629Z,2.15
2018-12-15T16:34:08.961Z,2.16
2018-12-15T16:36:38.281Z,2.13
2018-12-15T16:39:08.722Z,2.11
2018-12-15T16:41:42.190Z,2.09
2018-12-15T16:44:08.142Z,2.09
2018-12-15T16:46:37.403Z,2.07
2018-12-15T16:49:06.681Z,2.06
2018-12-15T16:51:35.931Z,2.03
2018-12-15T16:54:05.196Z,2.03
2018-12-15T16:56:34.456Z,2.03
2018-12-15T16:59:03.757Z,2.08
2018-12-15T17:01:33.034Z,2.09
2018-12-15T17:04:02.308Z,2.04
2018-12-15T17:06:31.598Z,2.03
2018-12-15T17:09:00.873Z,2.01
2018-12-15T17:11:30.128Z,1.99
2018-12-15T17:13:59.395Z,1.99
2018-12-15T17:16:28.642Z,1.99
2018-12-15T17:18:57.911Z,1.99
2018-12-15T17:21:27.166Z,1.97
2018-12-15T17:23:56.419Z,1.93
2018-12-15T17:26:25.682Z,1.90
2018-12-15T17:28:54.942Z,1.86
2018-12-15T17:31:43.259Z,1.88
2018-12-15T17:34:12.545Z,1.86
2018-12-15T17:36:41.804Z,1.85
2018-12-15T17:42:00.314Z,1.82
2018-12-15T17:44:29.575Z,1.84
2018-12-15T17:46:58.848Z,1.85
2018-12-15T17:49:28.104Z,1.85
2018-12-15T17:52:17.234Z,1.87
2018-12-15T17:54:46.509Z,1.84
2018-12-15T17:57:15.776Z,1.85
2018-12-15T17:59:45.033Z,1.91
2018-12-15T18:02:14.348Z,1.92
2018-12-15T18:04:43.609Z,1.94
2018-12-15T18:12:22.770Z,1.98
2018-12-15T18:14:52.020Z,1.95
2018-12-15T18:17:21.282Z,1.94
2018-12-15T18:19:50.526Z,1.95
2018-12-15T18:22:19.801Z,1.94
2018-12-15T18:24:49.082Z,1.91
2018-12-15T18:27:18.351Z,1.90
2018-12-15T18:30:07.203Z,1.90
2018-12-15T18:32:55.549Z,1.90
2018-12-15T18:35:24.811Z,1.91
2018-12-15T18:37:54.065Z,1.92
2018-12-15T18:40:23.335Z,1.93
2018-12-15T18:42:52.598Z,1.93
2018-12-15T18:45:21.859Z,1.93
2018-12-15T18:47:51.126Z,1.94
2018-12-15T18:50:20.391Z,1.95
2018-12-15T18:52:49.659Z,1.95
2018-12-15T18:55:18.916Z,1.97
2018-12-15T18:57:48.178Z,1.96
2018-12-15T19:00:17.434Z,1.96
2018-12-15T19:02:46.710Z,1.95
2018-12-15T19:08:04.354Z,1.98
2018-12-15T19:10:33.668Z,1.98
2018-12-15T19:13:02.869Z,1.99
2018-12-15T19:15:32.110Z,2.05
2018-12-15T19:18:01.373Z,2.09
2018-12-15T19:20:30.624Z,2.14
2018-12-15T19:22:59.885Z,2.14
2018-12-15T19:25:29.136Z,2.15
2018-12-15T19:27:58.394Z,2.13
2018-12-15T19:30:27.651Z,2.12
2018-12-15T19:32:56.912Z,2.12
2018-12-15T19:35:26.166Z,2.14
2018-12-15T19:37:55.426Z,2.18
2018-12-15T19:40:24.674Z,2.20
2018-12-15T19:42:53.938Z,2.20
2018-12-15T19:45:23.186Z,2.21
2018-12-15T19:47:52.452Z,2.21
2018-12-15T19:50:41.571Z,2.24
2018-12-15T19:53:10.860Z,2.23
2018-12-15T19:55:40.118Z,2.21
2018-12-15T19:58:09.374Z,2.21
2018-12-15T20:00:38.631Z,2.24
2018-12-15T20:03:07.897Z,2.26
2018-12-15T20:08:25.542Z,2.23
2018-12-15T20:13:43.183Z,2.25
2018-12-15T20:16:32.051Z,2.25
2018-12-15T20:19:01.305Z,2.29
2018-12-15T20:21:36.000Z,2.27
2018-12-15T20:24:00.732Z,2.22
2018-12-15T20:26:29.990Z,2.19
2018-12-15T20:28:59.245Z,2.22
2018-12-15T20:31:28.507Z,2.26
2018-12-15T20:33:57.782Z,2.26
2018-12-15T20:36:27.038Z,2.24
2018-12-15T20:38:56.298Z,2.25
2018-12-15T20:41:25.548Z,2.22
2018-12-15T20:43:54.814Z,2.23
2018-12-15T20:46:24.207Z,2.20
2018-12-15T20:48:53.472Z,2.18
2018-12-15T20:51:22.728Z,2.17
2018-12-15T20:53:51.991Z,2.14
2018-12-15T20:56:21.238Z,2.14
2018-12-15T20:58:50.562Z,2.11
2018-12-15T21:04:09.025Z,2.10
2018-12-15T21:06:38.280Z,2.08
2018-12-15T21:09:08.811Z,2.08
2018-12-15T21:14:26.442Z,2.15
2018-12-15T21:16:55.717Z,2.16
2018-12-15T21:22:13.363Z,2.17
2018-12-15T21:27:30.997Z,2.17
2018-12-15T21:30:00.245Z,2.14
2018-12-15T21:35:04.514Z,2.10
2018-12-15T21:37:33.782Z,2.11
2018-12-15T21:40:03.030Z,2.12
2018-12-15T21:45:06.796Z,2.15
2018-12-15T21:47:36.067Z,2.14
2018-12-15T21:50:06.067Z,2.11
2018-12-15T21:52:35.338Z,2.06
2018-12-15T21:55:04.594Z,2.07
2018-12-15T21:57:33.853Z,2.09
2018-12-15T22:00:03.199Z,2.10
2018-12-15T22:02:32.496Z,2.09
2018-12-15T22:05:01.747Z,2.08
2018-12-15T22:07:30.998Z,2.06
2018-12-15T22:10:00.266Z,2.03
2018-12-15T22:12:29.516Z,1.99
2018-12-15T22:14:58.783Z,1.97
2018-12-15T22:20:16.443Z,1.94
2018-12-15T22:22:45.772Z,1.91
2018-12-15T22:25:15.065Z,1.87
2018-12-15T22:27:44.320Z,1.83
2018-12-15T22:30:13.621Z,1.79
2018-12-15T22:35:31.275Z,1.79
2018-12-15T22:40:35.800Z,1.70
2018-12-15T22:43:05.065Z,1.67
2018-12-15T22:48:22.694Z,1.61
2018-12-15T22:53:40.362Z,1.53
2018-12-15T22:56:09.620Z,1.52
2018-12-15T22:58:38.883Z,1.47
2018-12-15T23:01:26.867Z,1.42
2018-12-15T23:03:56.135Z,1.44
2018-12-15T23:06:25.394Z,1.40
2018-12-15T23:08:54.669Z,1.39
2018-12-15T23:11:23.926Z,1.38
2018-12-15T23:13:53.194Z,1.35
2018-12-15T23:16:22.444Z,1.32
2018-12-15T23:18:51.707Z,1.33
2018-12-15T23:21:20.967Z,1.34
2018-12-15T23:23:50.241Z,1.30
2018-12-15T23:26:19.495Z,1.28
2018-12-15T23:28:48.759Z,1.26
2018-12-15T23:31:18.018Z,1.22
2018-12-15T23:33:47.291Z,1.20
2018-12-15T23:36:16.545Z,1.15
2018-12-15T23:38:45.812Z,1.12
2018-12-15T23:41:15.081Z,1.14
2018-12-15T23:43:44.359Z,1.08
2018-12-15T23:46:13.616Z,1.07
2018-12-15T23:48:42.862Z,1.02
2018-12-15T23:51:12.142Z,1.00
2018-12-15T23:53:41.389Z,0.98
2018-12-15T23:56:10.654Z,0.98
2018-12-15T23:58:39.940Z,1.00
